Time;durP1;ratioP1;P1;durP2;ratioP2;P2;SDS_P1;SDS_P2;PMS_P1;PMS_P2;Temp;Humidity;BMP_temperature;BMP_pressure;BME280_temperature;BME280_humidity;BME280_pressure;Samples;Min_cycle;Max_cycle;Signal;HPM_P1;HPM_P2
2023/08/22 00:01:57;;;;;;;6.43;4.37;;;20.60;99.90;;;21.61;100.00;98567.16;5071944;28;20468;-78
2023/08/22 00:04:27;;;;;;;5.60;3.53;;;20.70;99.90;;;21.57;100.00;98561.53;5072593;28;20463;-78
2023/08/22 00:06:59;;;;;;;10.80;4.60;;;20.70;99.90;;;21.51;100.00;98551.06;5072743;28;20464;-78
2023/08/22 00:09:29;;;;;;;6.33;3.70;;;20.60;99.90;;;21.53;100.00;98552.41;5072176;28;20506;-77
2023/08/22 00:11:59;;;;;;;10.40;3.93;;;20.60;99.90;;;21.51;100.00;98553.72;5072383;28;21463;-78
2023/08/22 00:14:30;;;;;;;10.03;4.10;;;20.60;99.90;;;21.50;100.00;98557.44;5074408;28;20457;-77
2023/08/22 00:17:00;;;;;;;11.63;3.67;;;20.60;99.90;;;21.47;100.00;98553.41;5073256;28;20463;-77
2023/08/22 00:19:30;;;;;;;7.83;3.63;;;20.60;99.90;;;21.48;100.00;98551.56;5074983;28;20495;-78
2023/08/22 00:22:00;;;;;;;5.13;3.70;;;20.50;99.90;;;21.44;100.00;98555.75;5074225;28;20464;-77
2023/08/22 00:24:31;;;;;;;5.40;4.07;;;20.40;99.90;;;21.41;100.00;98548.25;5073175;28;20499;-77
2023/08/22 00:27:00;;;;;;;11.63;4.10;;;20.50;99.90;;;21.42;100.00;98548.00;5073211;28;20469;-78
2023/08/22 00:29:30;;;;;;;5.37;3.50;;;20.50;99.90;;;21.37;100.00;98547.94;5072210;28;20476;-78
2023/08/22 00:32:01;;;;;;;6.37;3.60;;;20.40;99.90;;;21.38;100.00;98540.75;5071490;28;21029;-78
2023/08/22 00:34:30;;;;;;;4.93;3.80;;;20.40;99.90;;;21.32;100.00;98542.53;5075965;28;21045;-78
2023/08/22 00:37:02;;;;;;;5.50;3.83;;;20.40;99.90;;;21.32;100.00;98544.38;5076867;28;20462;-77
2023/08/22 00:39:32;;;;;;;5.60;3.63;;;20.40;99.90;;;21.24;100.00;98542.94;5075130;28;21681;-78
2023/08/22 00:42:02;;;;;;;8.40;3.60;;;20.30;99.90;;;21.16;100.00;98538.03;5075106;28;20494;-77
2023/08/22 00:44:32;;;;;;;11.40;3.53;;;20.40;99.90;;;21.13;100.00;98543.84;5074255;28;20508;-78
2023/08/22 00:47:03;;;;;;;6.37;3.30;;;20.20;99.90;;;21.09;100.00;98538.16;5074772;28;20460;-77
2023/08/22 00:49:34;;;;;;;11.70;3.60;;;20.10;99.90;;;21.05;100.00;98533.56;5074350;28;21019;-77
2023/08/22 00:52:08;;;;;;;9.33;3.20;;;20.20;99.90;;;21.03;100.00;98533.00;5073845;28;20819;-78
2023/08/22 00:54:38;;;;;;;6.10;4.47;;;20.20;99.90;;;21.00;100.00;98526.31;5074755;28;21024;-77
2023/08/22 00:57:07;;;;;;;7.67;4.07;;;20.20;99.90;;;21.03;100.00;98528.47;5073841;28;20821;-77
2023/08/22 00:59:37;;;;;;;13.50;4.03;;;20.20;99.90;;;21.01;100.00;98530.59;5073862;28;20500;-77
2023/08/22 01:02:08;;;;;;;9.80;4.23;;;20.10;99.90;;;20.99;100.00;98521.25;5073177;28;20466;-78
2023/08/22 01:04:37;;;;;;;7.53;4.00;;;20.10;99.90;;;20.99;100.00;98513.25;5077443;28;20958;-77
2023/08/22 01:07:21;;;;;;;10.10;3.50;;;20.00;99.90;;;20.95;100.00;98510.28;5075716;28;20467;-77
2023/08/22 01:10:02;;;;;;;10.00;4.60;;;20.10;99.90;;;21.00;100.00;98507.69;5077570;28;20465;-78
2023/08/22 01:12:41;;;;;;;7.03;4.40;;;20.00;99.90;;;20.96;100.00;98511.09;5080026;28;20458;-78
2023/08/22 01:15:24;;;;;;;7.03;3.50;;;19.80;99.90;;;20.92;100.00;98509.97;5077558;28;20460;-78
2023/08/22 01:17:57;;;;;;;7.27;3.33;;;19.70;99.90;;;20.82;100.00;98513.25;5078251;28;20456;-78
2023/08/22 01:20:27;;;;;;;7.73;3.83;;;19.80;99.90;;;20.79;100.00;98513.72;5078448;28;20539;-78
2023/08/22 01:22:59;;;;;;;11.30;3.50;;;19.70;99.90;;;20.77;100.00;98509.69;5078814;28;20448;-77
2023/08/22 01:25:30;;;;;;;11.17;4.03;;;19.70;99.90;;;20.78;100.00;98503.34;5078764;28;20466;-77
2023/08/22 01:28:11;;;;;;;14.20;4.47;;;19.70;99.90;;;20.82;100.00;98515.13;5076978;28;20464;-77
2023/08/22 01:30:56;;;;;;;7.23;4.53;;;19.70;99.90;;;20.78;100.00;98498.84;5078398;28;20448;-78
2023/08/22 01:33:33;;;;;;;6.90;3.50;;;19.80;99.90;;;20.75;100.00;98509.16;5077405;28;20840;-78
2023/08/22 01:36:07;;;;;;;10.20;4.20;;;19.90;99.90;;;20.71;100.00;98502.69;5079154;28;20494;-77
2023/08/22 01:38:43;;;;;;;8.30;4.40;;;19.80;99.90;;;20.65;100.00;98503.66;5077714;28;20571;-78
2023/08/22 01:41:14;;;;;;;7.17;4.37;;;19.70;99.90;;;20.68;100.00;98503.19;5077516;28;20447;-77
2023/08/22 01:43:46;;;;;;;11.37;3.93;;;19.50;99.90;;;20.69;100.00;98499.50;5076409;28;20520;-78
2023/08/22 01:46:16;;;;;;;4.57;3.27;;;19.60;99.90;;;20.63;100.00;98492.44;5079549;28;21230;-78
2023/08/22 01:48:46;;;;;;;12.53;3.70;;;19.60;99.90;;;20.56;100.00;98493.41;5077896;28;20481;-77
2023/08/22 01:51:16;;;;;;;6.90;4.30;;;19.60;99.90;;;20.54;100.00;98484.88;5079220;28;20468;-78
2023/08/22 01:53:47;;;;;;;7.67;3.70;;;19.60;99.90;;;20.49;100.00;98478.66;5076786;28;20497;-77
2023/08/22 01:56:16;;;;;;;5.87;3.87;;;19.70;99.90;;;20.47;100.00;98475.44;5076422;28;20555;-78
2023/08/22 01:58:45;;;;;;;8.70;3.83;;;19.60;99.90;;;20.40;100.00;98472.13;5076060;28;20530;-78
2023/08/22 02:01:15;;;;;;;10.00;4.57;;;19.60;99.90;;;20.43;100.00;98466.34;5076866;28;20528;-78
2023/08/22 02:03:46;;;;;;;18.53;4.17;;;19.40;99.90;;;20.43;100.00;98480.44;5074907;28;20463;-78
2023/08/22 02:06:16;;;;;;;11.63;3.83;;;19.40;99.90;;;20.44;100.00;98482.03;5078167;28;21288;-78
2023/08/22 02:08:48;;;;;;;7.80;3.63;;;19.50;99.90;;;20.40;100.00;98474.78;5076902;28;20468;-78
2023/08/22 02:11:19;;;;;;;11.70;4.30;;;19.40;99.90;;;20.36;100.00;98479.78;5077459;28;20508;-78
2023/08/22 02:13:50;;;;;;;8.83;4.00;;;19.40;99.90;;;20.38;100.00;98479.53;5075497;28;20493;-77
2023/08/22 02:16:19;;;;;;;5.70;4.50;;;19.30;99.90;;;20.35;100.00;98483.47;5077530;28;20562;-77
2023/08/22 02:18:48;;;;;;;9.57;3.90;;;19.30;99.90;;;20.36;100.00;98484.28;5077065;28;20471;-78
2023/08/22 02:21:19;;;;;;;8.37;4.27;;;19.30;99.90;;;20.29;100.00;98484.44;5076212;28;20463;-77
2023/08/22 02:23:50;;;;;;;5.47;3.60;;;19.40;99.90;;;20.33;100.00;98490.09;5076699;28;20490;-78
2023/08/22 02:26:20;;;;;;;12.90;4.60;;;19.30;99.90;;;20.32;100.00;98489.28;5077058;28;20953;-78
2023/08/22 02:28:52;;;;;;;10.63;4.83;;;19.30;99.90;;;20.30;100.00;98498.53;5079521;28;20454;-76
2023/08/22 02:31:22;;;;;;;8.33;3.40;;;19.40;99.90;;;20.30;100.00;98490.56;5075411;28;20529;-77
2023/08/22 02:33:51;;;;;;;7.77;4.70;;;19.40;99.90;;;20.21;100.00;98489.28;5075794;28;21001;-77
2023/08/22 02:36:21;;;;;;;8.97;4.30;;;19.20;99.90;;;20.19;100.00;98497.50;5074046;28;20457;-78
2023/08/22 02:38:52;;;;;;;16.90;4.73;;;19.30;99.90;;;20.19;100.00;98502.00;5073881;28;20451;-78
2023/08/22 02:41:22;;;;;;;6.00;3.87;;;19.10;99.90;;;20.17;100.00;98499.56;5074808;28;20587;-78
2023/08/22 02:43:52;;;;;;;11.03;4.13;;;19.10;99.90;;;20.12;100.00;98507.47;5074705;28;20487;-77
2023/08/22 02:46:21;;;;;;;5.10;3.87;;;19.20;99.90;;;20.14;100.00;98502.72;5077813;28;20854;-77
2023/08/22 02:48:50;;;;;;;16.13;4.70;;;19.20;99.90;;;20.13;100.00;98498.47;5074053;28;20532;-77
2023/08/22 02:51:21;;;;;;;8.57;3.93;;;19.10;99.90;;;20.12;100.00;98496.03;5074436;28;20884;-78
2023/08/22 02:53:53;;;;;;;12.10;4.90;;;19.00;99.90;;;20.12;100.00;98496.84;5075505;28;20479;-76
2023/08/22 02:56:22;;;;;;;5.40;4.37;;;19.10;99.90;;;20.09;100.00;98494.66;5076061;28;20487;-77
2023/08/22 02:58:53;;;;;;;10.20;4.60;;;19.00;99.90;;;20.03;100.00;98496.41;5075314;28;20678;-77
2023/08/22 03:01:23;;;;;;;7.13;3.63;;;19.00;99.90;;;19.98;100.00;98501.63;5077020;28;20574;-77
2023/08/22 03:03:54;;;;;;;6.97;4.87;;;19.10;99.90;;;19.93;100.00;98501.50;5074284;28;20467;-77
2023/08/22 03:06:24;;;;;;;9.03;4.27;;;19.20;99.90;;;19.90;100.00;98498.50;5074892;28;21106;-77
2023/08/22 03:08:55;;;;;;;8.40;4.87;;;19.10;99.90;;;19.92;100.00;98493.78;5073057;28;20459;-78
2023/08/22 03:11:26;;;;;;;6.53;4.30;;;19.10;99.90;;;19.88;100.00;98490.81;5072910;28;20467;-76
2023/08/22 03:13:55;;;;;;;12.13;4.30;;;18.90;99.90;;;19.82;100.00;98477.66;5071033;28;20467;-76
2023/08/22 03:16:25;;;;;;;5.50;4.77;;;18.90;99.90;;;19.86;100.00;98494.72;5071739;28;20475;-78
2023/08/22 03:18:57;;;;;;;7.13;4.73;;;18.80;99.90;;;19.91;100.00;98484.22;5070358;28;20457;-77
2023/08/22 03:21:27;;;;;;;11.03;5.33;;;18.80;99.90;;;19.91;100.00;98492.97;5072417;28;20498;-78
2023/08/22 03:23:59;;;;;;;7.57;4.77;;;18.80;99.90;;;19.92;100.00;98488.50;5071421;28;20537;-80
2023/08/22 03:26:28;;;;;;;10.23;4.73;;;18.80;99.90;;;19.92;100.00;98489.25;5071967;28;20590;-78
2023/08/22 03:28:57;;;;;;;11.60;4.20;;;18.80;99.90;;;19.85;100.00;98485.16;5076394;28;20462;-77
2023/08/22 03:31:29;;;;;;;10.77;3.80;;;18.80;99.90;;;19.79;100.00;98494.84;5074723;28;20476;-78
2023/08/22 03:33:59;;;;;;;8.10;4.67;;;18.90;99.90;;;19.72;100.00;98493.38;5075120;28;20455;-78
2023/08/22 03:36:31;;;;;;;6.97;4.67;;;18.90;99.90;;;19.77;100.00;98488.97;5077072;28;20463;-79
2023/08/22 03:39:02;;;;;;;11.13;4.63;;;18.80;99.90;;;19.77;100.00;98490.81;5077995;28;20447;-78
2023/08/22 03:41:32;;;;;;;13.23;4.30;;;18.80;99.90;;;19.75;100.00;98490.25;5076742;28;20510;-78
2023/08/22 03:44:02;;;;;;;9.00;4.87;;;18.80;99.90;;;19.70;100.00;98487.50;5076313;28;20465;-79
2023/08/22 03:46:32;;;;;;;4.83;3.60;;;18.80;99.90;;;19.70;100.00;98492.81;5074890;28;20471;-78
2023/08/22 03:49:07;;;;;;;10.93;4.50;;;18.60;99.90;;;19.70;100.00;98484.84;5073869;28;20454;-78
2023/08/22 03:51:36;;;;;;;10.60;4.00;;;18.60;99.90;;;19.70;100.00;98490.16;5073696;28;20480;-77
2023/08/22 03:54:10;;;;;;;16.70;4.87;;;18.60;99.90;;;19.70;100.00;98490.97;5073564;28;20514;-80
2023/08/22 03:56:40;;;;;;;17.40;5.93;;;18.60;99.90;;;19.68;100.00;98478.97;5073675;28;20467;-78
2023/08/22 03:59:10;;;;;;;11.40;4.00;;;18.60;99.90;;;19.68;100.00;98476.31;5074607;28;20455;-78
2023/08/22 04:01:40;;;;;;;8.13;4.97;;;18.50;99.90;;;19.61;100.00;98483.59;5070054;28;20516;-77
2023/08/22 04:04:14;;;;;;;7.30;4.20;;;18.60;99.90;;;19.52;100.00;98478.66;5069841;28;20470;-77
2023/08/22 04:06:43;;;;;;;10.33;4.17;;;18.70;99.90;;;19.56;100.00;98482.44;5071163;28;21186;-78
2023/08/22 04:09:14;;;;;;;8.43;4.53;;;18.60;99.90;;;19.52;100.00;98481.31;5073035;28;20485;-78
2023/08/22 04:11:45;;;;;;;19.63;5.00;;;18.60;99.90;;;19.48;100.00;98488.09;5072834;28;20471;-77
2023/08/22 04:14:13;;;;;;;7.53;4.83;;;18.70;99.90;;;19.50;100.00;98486.03;5072270;28;20460;-78
2023/08/22 04:16:44;;;;;;;17.67;5.47;;;18.60;99.90;;;19.50;100.00;98483.41;5074981;28;21116;-78
2023/08/22 04:19:14;;;;;;;8.00;3.70;;;18.50;99.90;;;19.47;100.00;98486.47;5074520;28;20475;-78
2023/08/22 04:21:45;;;;;;;13.43;4.33;;;18.50;99.90;;;19.48;100.00;98488.09;5073078;28;20562;-78
2023/08/22 04:24:16;;;;;;;15.63;5.00;;;18.40;99.90;;;19.46;100.00;98478.78;5070865;28;20456;-77
2023/08/22 04:26:48;;;;;;;7.73;4.67;;;18.40;99.90;;;19.46;100.00;98489.38;5073556;28;20516;-78
2023/08/22 04:29:19;;;;;;;12.83;4.50;;;18.40;99.90;;;19.38;100.00;98487.88;5072354;28;20466;-77
2023/08/22 04:31:49;;;;;;;8.37;4.83;;;18.60;99.90;;;19.33;100.00;98490.38;5072845;28;20478;-78
2023/08/22 04:34:19;;;;;;;12.53;4.80;;;18.50;99.90;;;19.34;100.00;98499.16;5071884;28;20540;-77
2023/08/22 04:36:49;;;;;;;7.00;4.57;;;18.50;99.90;;;19.30;100.00;98501.47;5071308;28;20464;-78
2023/08/22 04:39:21;;;;;;;10.60;4.53;;;18.40;99.90;;;19.30;100.00;98506.00;5067847;28;20470;-81
2023/08/22 04:41:52;;;;;;;11.20;4.50;;;18.40;99.90;;;19.23;100.00;98502.66;5070875;28;20859;-78
2023/08/22 04:44:22;;;;;;;6.17;4.90;;;18.40;99.90;;;19.24;100.00;98506.88;5074631;28;20957;-78
2023/08/22 04:46:52;;;;;;;5.83;4.40;;;18.30;99.90;;;19.24;100.00;98506.88;5075641;28;20894;-78
2023/08/22 04:49:21;;;;;;;19.23;4.90;;;18.30;99.90;;;19.15;100.00;98498.50;5076787;28;20456;-78
2023/08/22 04:51:52;;;;;;;6.77;4.47;;;18.20;99.90;;;19.08;100.00;98505.75;5081025;28;20968;-79
2023/08/22 04:54:23;;;;;;;5.97;4.00;;;18.30;99.90;;;19.06;100.00;98505.16;5078221;28;20468;-78
2023/08/22 04:56:54;;;;;;;10.47;4.50;;;18.20;99.90;;;19.00;100.00;98500.78;5079728;28;20466;-77
2023/08/22 04:59:24;;;;;;;9.30;4.20;;;18.20;99.90;;;18.98;100.00;98510.81;5078008;28;21232;-78
2023/08/22 05:01:55;;;;;;;15.53;4.50;;;18.20;99.90;;;18.82;100.00;98516.75;5077082;28;20499;-78
2023/08/22 05:04:24;;;;;;;8.87;4.70;;;18.30;99.90;;;18.80;100.00;98510.91;5078218;28;20554;-80
2023/08/22 05:06:55;;;;;;;13.87;5.40;;;18.20;99.90;;;18.85;100.00;98511.00;5080736;28;20515;-78
2023/08/22 05:09:26;;;;;;;7.23;4.40;;;18.10;99.90;;;18.88;100.00;98507.94;5078830;28;20469;-79
2023/08/22 05:11:57;;;;;;;7.83;4.97;;;18.00;99.90;;;18.94;100.00;98507.00;5079010;28;21000;-77
2023/08/22 05:14:27;;;;;;;14.90;4.47;;;17.90;99.90;;;18.94;100.00;98507.00;5077975;28;20456;-78
2023/08/22 05:16:58;;;;;;;10.47;5.20;;;17.90;99.90;;;18.95;100.00;98504.09;5078035;28;20456;-78
2023/08/22 05:19:30;;;;;;;5.57;4.37;;;17.90;99.90;;;18.98;100.00;98511.63;5078928;28;20486;-78
2023/08/22 05:22:00;;;;;;;16.43;5.30;;;17.90;99.90;;;19.00;100.00;98506.06;5077354;28;20529;-78
2023/08/22 05:24:32;;;;;;;8.97;4.07;;;18.00;99.90;;;19.02;100.00;98504.81;5078009;28;20463;-77
2023/08/22 05:27:03;;;;;;;9.13;4.87;;;18.00;99.90;;;19.05;100.00;98506.22;5077350;28;20454;-77
2023/08/22 05:29:33;;;;;;;7.63;4.67;;;17.90;99.90;;;19.04;100.00;98502.75;5079601;28;20526;-77
2023/08/22 05:32:03;;;;;;;12.27;4.53;;;17.90;99.90;;;19.08;100.00;98497.78;5077179;28;20988;-78
2023/08/22 05:34:33;;;;;;;4.43;3.57;;;17.90;99.90;;;19.07;100.00;98507.59;5079746;28;20486;-78
2023/08/22 05:37:03;;;;;;;7.17;5.27;;;17.90;99.90;;;19.08;100.00;98500.44;5080503;28;20456;-78
2023/08/22 05:39:37;;;;;;;6.43;4.67;;;17.90;99.90;;;19.09;100.00;98510.81;5077851;28;20455;-78
2023/08/22 05:42:08;;;;;;;6.67;4.40;;;17.90;99.90;;;19.07;100.00;98512.09;5077434;28;20497;-78
2023/08/22 05:44:39;;;;;;;6.90;4.60;;;17.90;99.90;;;19.02;100.00;98511.97;5079737;28;20509;-78
2023/08/22 05:47:10;;;;;;;4.97;4.20;;;18.10;99.90;;;18.94;100.00;98505.16;5078822;28;20462;-78
2023/08/22 05:49:43;;;;;;;15.80;4.17;;;18.30;99.90;;;18.95;100.00;98504.09;5078447;28;20456;-78
2023/08/22 05:52:14;;;;;;;7.20;4.47;;;18.20;99.90;;;19.03;100.00;98516.22;5077942;28;20479;-78
2023/08/22 05:54:44;;;;;;;5.40;4.07;;;18.10;99.90;;;19.05;100.00;98508.88;5078767;28;20948;-77
2023/08/22 05:57:14;;;;;;;12.03;4.27;;;18.00;99.90;;;19.08;100.00;98511.06;5076389;28;20449;-77
2023/08/22 05:59:44;;;;;;;7.40;4.83;;;18.00;99.90;;;19.14;100.00;98510.13;5078667;28;20462;-78
2023/08/22 06:02:15;;;;;;;6.50;4.10;;;18.10;99.90;;;19.19;100.00;98510.25;5081016;28;20500;-77
2023/08/22 06:04:46;;;;;;;7.70;4.17;;;18.10;99.90;;;19.23;100.00;98513.25;5078910;28;20506;-78
2023/08/22 06:07:15;;;;;;;6.00;4.60;;;18.20;99.90;;;19.25;100.00;98509.31;5079240;28;21242;-78
2023/08/22 06:09:45;;;;;;;8.47;5.00;;;18.20;99.90;;;19.29;100.00;98512.31;5078464;28;20460;-78
2023/08/22 06:12:14;;;;;;;9.60;5.00;;;18.20;99.90;;;19.29;100.00;98507.84;5080776;28;20467;-79
2023/08/22 06:14:44;;;;;;;7.80;4.30;;;18.20;99.90;;;19.31;100.00;98513.69;5078586;28;20468;-79
2023/08/22 06:17:14;;;;;;;5.87;4.53;;;18.20;99.90;;;19.35;100.00;98514.03;5079659;28;20459;-78
2023/08/22 06:19:48;;;;;;;5.97;4.57;;;18.20;99.90;;;19.38;100.00;98508.28;5079693;28;20463;-78
2023/08/22 06:22:18;;;;;;;8.13;4.57;;;18.30;99.90;;;19.38;100.00;98514.38;5078100;28;20541;-78
2023/08/22 06:24:49;;;;;;;6.73;4.60;;;18.20;99.90;;;19.41;100.00;98506.00;5079680;28;20455;-78
2023/08/22 06:27:20;;;;;;;16.37;5.30;;;18.30;99.90;;;19.42;100.00;98512.91;5079572;28;20460;-78
2023/08/22 06:29:51;;;;;;;8.33;4.37;;;18.40;99.90;;;19.44;100.00;98513.47;5080450;28;20443;-78
2023/08/22 06:32:22;;;;;;;7.80;4.23;;;18.50;99.90;;;19.51;100.00;98518.66;5078107;28;20476;-78
2023/08/22 06:34:53;;;;;;;5.87;4.43;;;18.50;99.90;;;19.55;100.00;98515.31;5077502;28;20543;-78
2023/08/22 06:37:24;;;;;;;7.60;4.23;;;18.50;99.90;;;19.59;100.00;98507.72;5077703;28;20458;-77
2023/08/22 06:39:56;;;;;;;6.73;4.03;;;18.60;99.90;;;19.62;100.00;98511.72;5077061;28;20470;-78
2023/08/22 06:42:26;;;;;;;9.80;5.03;;;18.70;99.90;;;19.67;100.00;98507.34;5076321;28;20483;-78
2023/08/22 06:44:56;;;;;;;7.30;4.40;;;18.70;99.90;;;19.72;100.00;98504.78;5076139;28;20978;-77
2023/08/22 06:47:27;;;;;;;13.03;4.20;;;18.70;99.90;;;19.78;100.00;98500.41;5077039;28;21010;-78
2023/08/22 06:49:57;;;;;;;7.97;4.80;;;18.80;99.90;;;19.80;100.00;98501.78;5077020;28;20463;-77
2023/08/22 06:52:28;;;;;;;6.10;4.70;;;18.90;99.90;;;19.85;100.00;98509.06;5074404;28;20486;-77
2023/08/22 06:55:00;;;;;;;8.10;4.33;;;18.90;99.90;;;19.90;100.00;98501.16;5077730;28;20521;-78
2023/08/22 06:57:31;;;;;;;7.60;4.30;;;19.00;99.90;;;19.94;100.00;98505.78;5077588;28;20468;-77
2023/08/22 07:00:14;;;;;;;7.13;4.30;;;19.00;99.90;;;19.97;100.00;98501.84;5076262;28;20932;-77
2023/08/22 07:02:46;;;;;;;7.87;4.37;;;19.00;99.90;;;19.99;100.00;98510.41;5079372;28;20994;-78
2023/08/22 07:05:17;;;;;;;6.83;4.50;;;19.00;99.90;;;20.02;100.00;98510.72;5077229;28;20466;-78
2023/08/22 07:07:46;;;;;;;12.03;4.23;;;19.00;99.90;;;20.07;100.00;98502.84;5077513;28;20464;-78
2023/08/22 07:10:18;;;;;;;9.60;4.53;;;19.10;99.90;;;20.12;100.00;98504.81;5078465;28;20554;-78
2023/08/22 07:12:48;;;;;;;5.87;4.30;;;19.10;99.90;;;20.16;100.00;98511.25;5077254;28;20503;-78
2023/08/22 07:15:18;;;;;;;8.60;4.30;;;19.20;99.90;;;20.22;100.00;98499.69;5077788;28;20475;-78
2023/08/22 07:17:48;;;;;;;4.83;4.13;;;19.20;99.90;;;20.29;100.00;98511.00;5079689;28;20456;-78
2023/08/22 07:20:18;;;;;;;7.80;5.13;;;19.30;99.90;;;20.35;100.00;98511.88;5080680;28;20451;-79
2023/08/22 07:22:49;;;;;;;9.43;4.33;;;19.40;99.90;;;20.39;100.00;98511.19;5074274;28;20575;-79
2023/08/22 07:25:19;;;;;;;10.57;4.40;;;19.40;99.90;;;20.45;100.00;98509.41;5070656;28;20560;-82
2023/08/22 07:27:48;;;;;;;13.47;9.20;;;19.50;99.90;;;20.49;100.00;98506.06;5071248;28;20455;-79
2023/08/22 07:30:19;;;;;;;6.27;4.40;;;19.50;99.90;;;20.56;100.00;98512.03;5075398;28;20461;-78
2023/08/22 07:32:48;;;;;;;12.10;5.00;;;19.60;99.90;;;20.62;100.00;98504.94;5074455;28;20482;-79
2023/08/22 07:35:19;;;;;;;4.50;4.07;;;19.70;99.90;;;20.69;100.00;98510.13;5074711;28;20459;-79
2023/08/22 07:37:49;;;;;;;4.80;4.07;;;19.70;99.90;;;20.74;100.00;98505.69;5073527;28;20460;-79
2023/08/22 07:40:20;;;;;;;7.70;4.30;;;19.80;99.90;;;20.80;100.00;98506.56;5074912;28;20458;-78
2023/08/22 07:42:50;;;;;;;4.40;3.97;;;19.90;99.90;;;20.85;100.00;98509.31;5073584;28;20495;-79
2023/08/22 07:45:20;;;;;;;7.10;4.10;;;19.90;99.90;;;20.90;100.00;98506.72;5075717;28;20463;-81
2023/08/22 07:47:53;;;;;;;13.80;3.87;;;20.00;99.90;;;20.96;100.00;98516.41;5071146;28;20468;-78
2023/08/22 07:50:23;;;;;;;7.00;4.13;;;20.00;99.90;;;21.01;100.00;98503.19;5072562;28;20529;-81
2023/08/22 07:52:53;;;;;;;13.77;7.63;;;20.10;99.90;;;21.05;100.00;98510.44;5071936;28;20494;-79
2023/08/22 07:55:25;;;;;;;13.43;5.17;;;20.20;99.90;;;21.11;100.00;98508.69;5069875;28;21021;-79
2023/08/22 07:57:56;;;;;;;15.90;6.23;;;20.20;99.90;;;21.17;100.00;98515.72;5074055;28;20455;-79
2023/08/22 08:00:26;;;;;;;7.60;4.43;;;20.30;99.90;;;21.24;100.00;98513.66;5075834;28;20922;-79
2023/08/22 08:02:55;;;;;;;5.83;4.10;;;20.40;99.90;;;21.29;100.00;98519.06;5073957;28;20573;-79
2023/08/22 08:05:27;;;;;;;4.97;3.50;;;20.40;99.90;;;21.34;100.00;98519.16;5072156;28;20536;-79
2023/08/22 08:07:57;;;;;;;9.23;4.57;;;20.50;99.90;;;21.40;100.00;98523.50;5070800;28;20460;-78
2023/08/22 08:10:29;;;;;;;6.80;3.93;;;20.50;99.90;;;21.45;100.00;98520.88;5071091;28;20467;-76
2023/08/22 08:12:58;;;;;;;7.50;4.40;;;20.60;99.90;;;21.50;100.00;98528.97;5071379;28;20485;-78
2023/08/22 08:15:29;;;;;;;8.73;4.00;;;20.70;99.90;;;21.55;100.00;98525.56;5068649;28;20475;-78
2023/08/22 08:18:01;;;;;;;8.40;4.00;;;20.70;99.90;;;21.60;100.00;98525.63;5070730;28;20864;-79
2023/08/22 08:20:31;;;;;;;9.67;4.37;;;20.80;99.90;;;21.65;100.00;98527.56;5072733;28;20966;-79
2023/08/22 08:23:02;;;;;;;6.60;3.90;;;20.90;99.90;;;21.70;100.00;98522.28;5070899;28;20552;-78
2023/08/22 08:25:35;;;;;;;5.00;3.70;;;20.90;99.90;;;21.74;100.00;98528.72;5074033;28;20459;-78
2023/08/22 08:28:07;;;;;;;6.50;4.30;;;21.00;99.90;;;21.78;100.00;98528.00;5073253;28;20486;-79
2023/08/22 08:30:38;;;;;;;10.33;4.23;;;21.10;99.90;;;21.85;100.00;98527.81;5070410;28;20553;-79
2023/08/22 08:33:09;;;;;;;7.97;4.40;;;21.10;99.90;;;21.91;100.00;98524.19;5071876;28;21765;-80
2023/08/22 08:35:39;;;;;;;12.10;5.27;;;21.20;99.90;;;21.96;100.00;98524.25;5072239;28;20986;-79
2023/08/22 08:38:10;;;;;;;7.20;3.63;;;21.20;99.90;;;22.00;100.00;98525.38;5074238;28;20460;-79
2023/08/22 08:40:45;;;;;;;6.00;4.30;;;21.20;99.90;;;22.05;100.00;98523.56;5068237;28;20463;-79
2023/08/22 08:43:16;;;;;;;6.13;4.50;;;21.30;99.90;;;22.10;100.00;98520.16;5071954;28;20483;-81
2023/08/22 08:45:49;;;;;;;21.43;12.23;;;21.30;99.90;;;22.16;100.00;98524.50;5072642;28;20459;-79
2023/08/22 08:48:21;;;;;;;10.53;4.33;;;21.40;99.90;;;22.24;100.00;98524.06;5074054;28;20563;-79
2023/08/22 08:50:53;;;;;;;9.90;4.07;;;21.50;99.90;;;22.30;100.00;98527.56;5072535;28;20509;-79
2023/08/22 08:53:23;;;;;;;8.70;4.17;;;21.60;99.90;;;22.35;100.00;98538.28;5072290;28;20565;-79
2023/08/22 08:55:54;;;;;;;8.03;3.43;;;21.70;99.90;;;22.39;100.00;98528.72;5069663;28;20955;-78
2023/08/22 08:58:25;;;;;;;8.80;4.63;;;21.80;99.90;;;22.44;100.00;98537.59;5069679;28;20551;-78
2023/08/22 09:00:57;;;;;;;9.97;4.27;;;21.80;99.90;;;22.49;100.00;98537.63;5072156;28;20472;-79
2023/08/22 09:03:27;;;;;;;6.53;3.70;;;21.80;99.90;;;22.54;100.00;98540.34;5069295;28;21151;-78
2023/08/22 09:05:58;;;;;;;4.60;3.20;;;21.90;99.90;;;22.57;100.00;98529.19;5071437;28;20452;-78
2023/08/22 09:08:28;;;;;;;7.33;4.10;;;21.90;99.90;;;22.64;100.00;98528.16;5071367;28;20541;-78
2023/08/22 09:10:59;;;;;;;55.50;29.40;;;21.90;99.90;;;22.69;100.00;98533.59;5071532;28;20467;-81
2023/08/22 09:13:29;;;;;;;12.43;7.47;;;22.00;99.90;;;22.74;100.00;98525.63;5071088;28;20942;-78
2023/08/22 09:16:19;;;;;;;7.37;4.83;;;22.00;99.90;;;22.78;100.00;98540.06;5068720;28;20459;-78
2023/08/22 09:18:49;;;;;;;43.40;23.57;;;22.10;99.90;;;22.82;100.00;98531.31;5071780;28;20474;-78
2023/08/22 09:21:18;;;;;;;9.90;3.60;;;22.20;99.90;;;22.87;100.00;98527.91;5072701;28;20489;-78
2023/08/22 09:23:49;;;;;;;17.07;8.57;;;22.10;99.90;;;22.93;100.00;98537.53;5073310;28;20578;-80
2023/08/22 09:26:23;;;;;;;4.63;3.50;;;22.30;99.90;;;22.97;100.00;98528.78;5072146;28;21092;-77
2023/08/22 09:28:55;;;;;;;6.97;3.27;;;22.30;99.90;;;23.03;100.00;98530.41;5073403;28;20463;-78
2023/08/22 09:31:24;;;;;;;6.07;2.80;;;22.40;99.90;;;23.09;100.00;98528.59;5073570;28;21285;-77
2023/08/22 09:33:53;;;;;;;12.43;3.80;;;22.40;99.90;;;23.17;100.00;98530.78;5075964;28;20455;-78
2023/08/22 09:36:24;;;;;;;8.70;3.50;;;22.40;99.90;;;23.23;100.00;98521.75;5075827;28;20464;-78
2023/08/22 09:38:56;;;;;;;9.03;3.17;;;22.50;99.90;;;23.27;100.00;98525.53;5078243;28;20451;-77
2023/08/22 09:41:28;;;;;;;5.80;3.57;;;22.60;99.90;;;23.33;100.00;98521.81;5076281;28;20467;-77
2023/08/22 09:44:07;;;;;;;6.40;3.13;;;22.70;99.90;;;23.39;100.00;98522.66;5074559;28;20499;-78
2023/08/22 09:46:39;;;;;;;9.53;3.53;;;22.70;99.90;;;23.44;100.00;98520.03;5077491;28;20554;-78
2023/08/22 09:49:15;;;;;;;5.63;3.13;;;22.70;99.90;;;23.48;100.00;98532.63;5075827;28;20464;-79
2023/08/22 09:51:47;;;;;;;6.90;3.60;;;22.70;99.90;;;23.52;100.00;98525.72;5077091;28;20558;-77
2023/08/22 09:54:16;;;;;;;4.33;3.37;;;22.80;99.90;;;23.55;100.00;98517.19;5076625;28;20546;-78
2023/08/22 09:56:48;;;;;;;7.37;3.30;;;22.90;99.90;;;23.61;100.00;98517.19;5075328;28;20819;-78
2023/08/22 09:59:20;;;;;;;7.23;3.27;;;23.00;99.90;;;23.64;100.00;98517.47;5077684;28;20545;-78
2023/08/22 10:01:49;;;;;;;6.80;3.60;;;23.00;99.90;;;23.68;100.00;98515.91;5076644;28;20973;-78
2023/08/22 10:04:19;;;;;;;7.23;3.40;;;23.00;99.90;;;23.73;100.00;98509.78;5077228;28;20500;-78
2023/08/22 10:06:48;;;;;;;3.70;2.83;;;23.00;99.90;;;23.77;100.00;98516.22;5075563;28;20983;-77
2023/08/22 10:09:22;;;;;;;6.30;3.60;;;23.00;99.90;;;23.84;100.00;98512.25;5076772;28;20467;-78
2023/08/22 10:11:58;;;;;;;6.20;3.40;;;23.10;99.90;;;23.88;100.00;98513.31;5076313;28;20459;-78
2023/08/22 10:14:33;;;;;;;6.00;3.30;;;23.20;99.90;;;23.92;100.00;98506.41;5078795;28;20467;-78
2023/08/22 10:17:03;;;;;;;5.30;3.10;;;23.30;99.90;;;23.98;100.00;98502.66;5076424;28;20452;-77
2023/08/22 10:19:32;;;;;;;8.23;3.40;;;23.30;99.90;;;24.03;100.00;98504.56;5075855;28;20463;-79
2023/08/22 10:22:08;;;;;;;3.53;2.70;;;23.30;99.90;;;24.09;100.00;98503.50;5078064;28;21042;-78
2023/08/22 10:24:39;;;;;;;5.83;3.10;;;23.40;99.90;;;24.15;100.00;98502.50;5075970;28;20499;-78
2023/08/22 10:27:13;;;;;;;9.60;3.10;;;23.40;99.90;;;24.24;100.00;98505.44;5077124;28;20471;-79